sensor_id;sensor_type;location;lat;lon;timestamp;P1;durP1;ratioP1;P2;durP2;ratioP2
4810;SDS011;2419;51.276;6.472;2022-11-14T00:02:31;3.37;;;2.60;;
4810;SDS011;2419;51.276;6.472;2022-11-14T00:05:18;6.07;;;3.80;;
4810;SDS011;2419;51.276;6.472;2022-11-14T00:08:06;3.13;;;2.80;;
4810;SDS011;2419;51.276;6.472;2022-11-14T00:10:59;4.73;;;3.87;;
4810;SDS011;2419;51.276;6.472;2022-11-14T00:13:45;4.77;;;3.47;;
4810;SDS011;2419;51.276;6.472;2022-11-14T00:16:34;5.07;;;3.50;;
4810;SDS011;2419;51.276;6.472;2022-11-14T00:19:21;5.80;;;3.43;;
4810;SDS011;2419;51.276;6.472;2022-11-14T00:22:07;4.43;;;3.00;;
4810;SDS011;2419;51.276;6.472;2022-11-14T00:24:54;7.20;;;4.07;;
4810;SDS011;2419;51.276;6.472;2022-11-14T00:27:41;3.23;;;2.90;;
4810;SDS011;2419;51.276;6.472;2022-11-14T00:30:28;6.30;;;4.00;;
4810;SDS011;2419;51.276;6.472;2022-11-14T00:33:17;6.23;;;4.00;;
4810;SDS011;2419;51.276;6.472;2022-11-14T00:36:05;6.23;;;2.97;;
4810;SDS011;2419;51.276;6.472;2022-11-14T00:38:52;6.17;;;3.03;;
4810;SDS011;2419;51.276;6.472;2022-11-14T00:41:39;3.13;;;2.83;;
4810;SDS011;2419;51.276;6.472;2022-11-14T00:44:26;4.80;;;3.57;;
4810;SDS011;2419;51.276;6.472;2022-11-14T00:47:13;4.17;;;2.70;;
4810;SDS011;2419;51.276;6.472;2022-11-14T00:50:02;4.63;;;2.57;;
4810;SDS011;2419;51.276;6.472;2022-11-14T00:52:50;3.33;;;2.60;;
4810;SDS011;2419;51.276;6.472;2022-11-14T00:55:36;3.60;;;2.70;;
4810;SDS011;2419;51.276;6.472;2022-11-14T00:58:23;4.70;;;3.00;;
4810;SDS011;2419;51.276;6.472;2022-11-14T01:01:10;2.90;;;2.47;;
4810;SDS011;2419;51.276;6.472;2022-11-14T01:03:57;4.57;;;3.30;;
4810;SDS011;2419;51.276;6.472;2022-11-14T01:06:46;6.97;;;3.70;;
4810;SDS011;2419;51.276;6.472;2022-11-14T01:09:32;4.23;;;2.83;;
4810;SDS011;2419;51.276;6.472;2022-11-14T01:12:19;3.27;;;2.33;;
4810;SDS011;2419;51.276;6.472;2022-11-14T01:15:06;4.27;;;2.57;;
4810;SDS011;2419;51.276;6.472;2022-11-14T01:17:54;8.50;;;3.23;;
4810;SDS011;2419;51.276;6.472;2022-11-14T01:20:41;5.70;;;3.00;;
4810;SDS011;2419;51.276;6.472;2022-11-14T01:23:32;2.87;;;2.67;;
4810;SDS011;2419;51.276;6.472;2022-11-14T01:26:19;3.87;;;3.07;;
4810;SDS011;2419;51.276;6.472;2022-11-14T01:29:06;6.87;;;4.10;;
4810;SDS011;2419;51.276;6.472;2022-11-14T01:31:53;3.03;;;2.40;;
4810;SDS011;2419;51.276;6.472;2022-11-14T01:34:39;3.03;;;2.53;;
4810;SDS011;2419;51.276;6.472;2022-11-14T01:37:26;4.90;;;2.83;;
4810;SDS011;2419;51.276;6.472;2022-11-14T01:40:15;2.30;;;2.10;;
4810;SDS011;2419;51.276;6.472;2022-11-14T01:46:18;2.67;;;2.10;;
4810;SDS011;2419;51.276;6.472;2022-11-14T01:49:11;5.33;;;3.00;;
4810;SDS011;2419;51.276;6.472;2022-11-14T01:52:04;3.97;;;3.20;;
4810;SDS011;2419;51.276;6.472;2022-11-14T01:54:54;6.10;;;3.43;;
4810;SDS011;2419;51.276;6.472;2022-11-14T01:57:46;3.87;;;2.93;;
4810;SDS011;2419;51.276;6.472;2022-11-14T02:00:34;3.00;;;2.73;;
4810;SDS011;2419;51.276;6.472;2022-11-14T02:03:21;14.23;;;2.07;;
4810;SDS011;2419;51.276;6.472;2022-11-14T02:06:09;2.73;;;2.40;;
4810;SDS011;2419;51.276;6.472;2022-11-14T02:09:01;10.20;;;2.80;;
4810;SDS011;2419;51.276;6.472;2022-11-14T02:11:50;4.70;;;3.10;;
4810;SDS011;2419;51.276;6.472;2022-11-14T02:14:42;3.80;;;2.93;;
4810;SDS011;2419;51.276;6.472;2022-11-14T02:17:30;4.20;;;3.50;;
4810;SDS011;2419;51.276;6.472;2022-11-14T02:20:20;3.00;;;2.70;;
4810;SDS011;2419;51.276;6.472;2022-11-14T02:23:09;5.33;;;3.20;;
4810;SDS011;2419;51.276;6.472;2022-11-14T02:25:56;4.50;;;2.30;;
4810;SDS011;2419;51.276;6.472;2022-11-14T02:28:44;2.60;;;2.20;;
4810;SDS011;2419;51.276;6.472;2022-11-14T02:31:30;5.63;;;2.97;;
4810;SDS011;2419;51.276;6.472;2022-11-14T02:34:18;3.07;;;2.40;;
4810;SDS011;2419;51.276;6.472;2022-11-14T02:37:06;2.77;;;2.00;;
4810;SDS011;2419;51.276;6.472;2022-11-14T02:39:53;9.60;;;3.10;;
4810;SDS011;2419;51.276;6.472;2022-11-14T02:42:39;4.07;;;2.00;;
4810;SDS011;2419;51.276;6.472;2022-11-14T02:45:26;2.50;;;2.20;;
4810;SDS011;2419;51.276;6.472;2022-11-14T02:48:13;3.30;;;2.63;;
4810;SDS011;2419;51.276;6.472;2022-11-14T02:51:00;5.33;;;2.77;;
4810;SDS011;2419;51.276;6.472;2022-11-14T02:53:48;3.10;;;2.50;;
4810;SDS011;2419;51.276;6.472;2022-11-14T02:56:35;4.07;;;2.37;;
4810;SDS011;2419;51.276;6.472;2022-11-14T02:59:22;3.97;;;2.67;;
4810;SDS011;2419;51.276;6.472;2022-11-14T03:02:09;2.53;;;2.00;;
4810;SDS011;2419;51.276;6.472;2022-11-14T03:04:55;4.60;;;3.43;;
4810;SDS011;2419;51.276;6.472;2022-11-14T03:07:42;7.80;;;2.50;;
4810;SDS011;2419;51.276;6.472;2022-11-14T03:10:30;3.57;;;2.57;;
4810;SDS011;2419;51.276;6.472;2022-11-14T03:13:16;5.70;;;2.40;;
4810;SDS011;2419;51.276;6.472;2022-11-14T03:16:04;3.50;;;2.20;;
4810;SDS011;2419;51.276;6.472;2022-11-14T03:18:52;2.30;;;2.10;;
4810;SDS011;2419;51.276;6.472;2022-11-14T03:21:39;2.40;;;2.20;;
4810;SDS011;2419;51.276;6.472;2022-11-14T03:24:25;9.13;;;3.73;;
4810;SDS011;2419;51.276;6.472;2022-11-14T03:27:14;4.13;;;3.40;;
4810;SDS011;2419;51.276;6.472;2022-11-14T03:30:01;2.50;;;2.17;;
4810;SDS011;2419;51.276;6.472;2022-11-14T03:32:48;2.83;;;2.63;;
4810;SDS011;2419;51.276;6.472;2022-11-14T03:35:40;3.50;;;2.40;;
4810;SDS011;2419;51.276;6.472;2022-11-14T03:38:28;4.13;;;2.30;;
4810;SDS011;2419;51.276;6.472;2022-11-14T03:41:16;3.87;;;2.70;;
4810;SDS011;2419;51.276;6.472;2022-11-14T03:44:05;4.30;;;2.53;;
4810;SDS011;2419;51.276;6.472;2022-11-14T03:46:51;2.50;;;2.10;;
4810;SDS011;2419;51.276;6.472;2022-11-14T03:49:38;5.67;;;3.40;;
4810;SDS011;2419;51.276;6.472;2022-11-14T03:52:25;3.10;;;2.23;;
4810;SDS011;2419;51.276;6.472;2022-11-14T03:55:13;3.53;;;2.93;;
4810;SDS011;2419;51.276;6.472;2022-11-14T03:58:00;3.70;;;2.70;;
4810;SDS011;2419;51.276;6.472;2022-11-14T04:00:48;4.53;;;1.73;;
4810;SDS011;2419;51.276;6.472;2022-11-14T04:03:35;3.60;;;2.90;;
4810;SDS011;2419;51.276;6.472;2022-11-14T04:06:22;4.10;;;3.03;;
4810;SDS011;2419;51.276;6.472;2022-11-14T04:09:09;3.27;;;2.30;;
4810;SDS011;2419;51.276;6.472;2022-11-14T04:11:56;2.50;;;2.30;;
4810;SDS011;2419;51.276;6.472;2022-11-14T04:14:42;4.43;;;3.10;;
4810;SDS011;2419;51.276;6.472;2022-11-14T04:17:31;2.43;;;1.63;;
4810;SDS011;2419;51.276;6.472;2022-11-14T04:20:23;4.47;;;3.00;;
4810;SDS011;2419;51.276;6.472;2022-11-14T04:23:10;11.10;;;2.67;;
4810;SDS011;2419;51.276;6.472;2022-11-14T04:25:57;3.93;;;1.60;;
4810;SDS011;2419;51.276;6.472;2022-11-14T04:28:44;3.47;;;2.87;;
4810;SDS011;2419;51.276;6.472;2022-11-14T04:31:31;2.00;;;1.80;;
4810;SDS011;2419;51.276;6.472;2022-11-14T04:34:19;3.77;;;2.40;;
4810;SDS011;2419;51.276;6.472;2022-11-14T04:37:06;3.00;;;1.80;;
4810;SDS011;2419;51.276;6.472;2022-11-14T04:39:53;9.90;;;2.70;;
4810;SDS011;2419;51.276;6.472;2022-11-14T04:42:44;3.30;;;2.60;;
4810;SDS011;2419;51.276;6.472;2022-11-14T04:45:31;2.37;;;1.83;;
4810;SDS011;2419;51.276;6.472;2022-11-14T04:48:18;2.90;;;1.93;;
4810;SDS011;2419;51.276;6.472;2022-11-14T04:51:07;2.20;;;2.00;;
4810;SDS011;2419;51.276;6.472;2022-11-14T04:53:53;1.77;;;1.67;;
4810;SDS011;2419;51.276;6.472;2022-11-14T04:56:40;3.40;;;2.87;;
4810;SDS011;2419;51.276;6.472;2022-11-14T04:59:27;1.63;;;1.53;;
4810;SDS011;2419;51.276;6.472;2022-11-14T05:02:14;3.03;;;2.03;;
4810;SDS011;2419;51.276;6.472;2022-11-14T05:05:01;3.00;;;1.57;;
4810;SDS011;2419;51.276;6.472;2022-11-14T05:07:49;2.90;;;1.90;;
4810;SDS011;2419;51.276;6.472;2022-11-14T05:10:36;2.63;;;1.77;;
4810;SDS011;2419;51.276;6.472;2022-11-14T05:13:22;2.63;;;2.07;;
4810;SDS011;2419;51.276;6.472;2022-11-14T05:16:10;1.97;;;1.33;;
4810;SDS011;2419;51.276;6.472;2022-11-14T05:18:57;2.00;;;1.80;;
4810;SDS011;2419;51.276;6.472;2022-11-14T05:21:44;3.40;;;1.47;;
4810;SDS011;2419;51.276;6.472;2022-11-14T05:24:32;9.43;;;2.80;;
4810;SDS011;2419;51.276;6.472;2022-11-14T05:27:20;1.87;;;1.70;;
4810;SDS011;2419;51.276;6.472;2022-11-14T05:30:07;1.97;;;1.77;;
4810;SDS011;2419;51.276;6.472;2022-11-14T05:32:55;2.63;;;1.77;;
4810;SDS011;2419;51.276;6.472;2022-11-14T05:35:42;3.37;;;2.67;;
4810;SDS011;2419;51.276;6.472;2022-11-14T05:38:29;1.03;;;0.93;;
4810;SDS011;2419;51.276;6.472;2022-11-14T05:41:18;3.57;;;1.90;;
4810;SDS011;2419;51.276;6.472;2022-11-14T05:44:05;2.87;;;2.53;;
4810;SDS011;2419;51.276;6.472;2022-11-14T05:46:52;2.00;;;1.23;;
4810;SDS011;2419;51.276;6.472;2022-11-14T05:49:38;1.97;;;1.87;;
4810;SDS011;2419;51.276;6.472;2022-11-14T05:52:25;8.90;;;1.43;;
4810;SDS011;2419;51.276;6.472;2022-11-14T05:55:12;1.50;;;1.40;;
4810;SDS011;2419;51.276;6.472;2022-11-14T05:58:00;1.73;;;1.43;;
4810;SDS011;2419;51.276;6.472;2022-11-14T06:00:47;2.23;;;1.90;;
4810;SDS011;2419;51.276;6.472;2022-11-14T06:03:39;2.13;;;1.93;;
4810;SDS011;2419;51.276;6.472;2022-11-14T06:06:27;1.50;;;1.40;;
4810;SDS011;2419;51.276;6.472;2022-11-14T06:09:14;4.57;;;1.80;;
4810;SDS011;2419;51.276;6.472;2022-11-14T06:12:00;4.30;;;1.57;;
4810;SDS011;2419;51.276;6.472;2022-11-14T06:14:51;3.23;;;2.03;;
4810;SDS011;2419;51.276;6.472;2022-11-14T06:17:38;1.90;;;1.77;;
4810;SDS011;2419;51.276;6.472;2022-11-14T06:20:25;1.80;;;1.60;;
4810;SDS011;2419;51.276;6.472;2022-11-14T06:23:12;5.20;;;2.40;;
4810;SDS011;2419;51.276;6.472;2022-11-14T06:25:59;3.67;;;2.33;;
4810;SDS011;2419;51.276;6.472;2022-11-14T06:28:46;0.87;;;0.87;;
4810;SDS011;2419;51.276;6.472;2022-11-14T06:31:35;1.33;;;1.23;;
4810;SDS011;2419;51.276;6.472;2022-11-14T06:34:21;2.80;;;1.97;;
4810;SDS011;2419;51.276;6.472;2022-11-14T06:37:08;2.60;;;2.13;;
4810;SDS011;2419;51.276;6.472;2022-11-14T06:39:54;2.03;;;1.83;;
4810;SDS011;2419;51.276;6.472;2022-11-14T06:42:41;2.17;;;1.83;;
4810;SDS011;2419;51.276;6.472;2022-11-14T06:45:28;1.83;;;1.50;;
4810;SDS011;2419;51.276;6.472;2022-11-14T06:48:16;2.03;;;1.83;;
4810;SDS011;2419;51.276;6.472;2022-11-14T06:51:03;2.27;;;1.30;;
4810;SDS011;2419;51.276;6.472;2022-11-14T06:53:50;3.17;;;1.77;;
4810;SDS011;2419;51.276;6.472;2022-11-14T06:56:37;1.63;;;1.53;;
4810;SDS011;2419;51.276;6.472;2022-11-14T06:59:24;4.57;;;3.40;;
4810;SDS011;2419;51.276;6.472;2022-11-14T07:02:11;2.70;;;1.30;;
4810;SDS011;2419;51.276;6.472;2022-11-14T07:05:07;2.43;;;2.13;;
4810;SDS011;2419;51.276;6.472;2022-11-14T07:07:56;2.67;;;2.27;;
4810;SDS011;2419;51.276;6.472;2022-11-14T07:10:42;2.50;;;2.20;;
4810;SDS011;2419;51.276;6.472;2022-11-14T07:13:29;7.27;;;2.80;;
4810;SDS011;2419;51.276;6.472;2022-11-14T07:16:16;3.90;;;2.10;;
4810;SDS011;2419;51.276;6.472;2022-11-14T07:19:04;3.57;;;2.33;;
4810;SDS011;2419;51.276;6.472;2022-11-14T07:21:54;2.23;;;1.80;;
4810;SDS011;2419;51.276;6.472;2022-11-14T07:24:40;6.30;;;3.13;;
4810;SDS011;2419;51.276;6.472;2022-11-14T07:27:27;2.30;;;1.67;;
4810;SDS011;2419;51.276;6.472;2022-11-14T07:30:15;6.23;;;2.43;;
4810;SDS011;2419;51.276;6.472;2022-11-14T07:33:01;7.47;;;3.43;;
4810;SDS011;2419;51.276;6.472;2022-11-14T07:35:49;4.93;;;2.60;;
4810;SDS011;2419;51.276;6.472;2022-11-14T07:38:38;2.20;;;1.73;;
4810;SDS011;2419;51.276;6.472;2022-11-14T07:41:25;3.87;;;3.17;;
4810;SDS011;2419;51.276;6.472;2022-11-14T07:44:12;1.83;;;1.63;;
4810;SDS011;2419;51.276;6.472;2022-11-14T07:46:59;8.80;;;2.93;;
4810;SDS011;2419;51.276;6.472;2022-11-14T07:49:46;6.60;;;2.73;;
4810;SDS011;2419;51.276;6.472;2022-11-14T07:52:32;4.53;;;2.53;;
4810;SDS011;2419;51.276;6.472;2022-11-14T07:55:21;3.57;;;2.00;;
4810;SDS011;2419;51.276;6.472;2022-11-14T07:58:08;4.17;;;3.77;;
4810;SDS011;2419;51.276;6.472;2022-11-14T08:00:54;4.20;;;2.70;;
4810;SDS011;2419;51.276;6.472;2022-11-14T08:03:45;3.17;;;2.17;;
4810;SDS011;2419;51.276;6.472;2022-11-14T08:06:32;4.90;;;2.90;;
4810;SDS011;2419;51.276;6.472;2022-11-14T08:09:18;2.83;;;2.63;;
4810;SDS011;2419;51.276;6.472;2022-11-14T08:12:08;1.43;;;1.30;;
4810;SDS011;2419;51.276;6.472;2022-11-14T08:14:55;2.07;;;1.87;;
4810;SDS011;2419;51.276;6.472;2022-11-14T08:17:42;3.17;;;2.00;;
4810;SDS011;2419;51.276;6.472;2022-11-14T08:20:29;3.20;;;2.03;;
4810;SDS011;2419;51.276;6.472;2022-11-14T08:23:16;4.47;;;2.70;;
4810;SDS011;2419;51.276;6.472;2022-11-14T08:26:03;2.67;;;2.13;;
4810;SDS011;2419;51.276;6.472;2022-11-14T08:28:52;2.93;;;2.63;;
4810;SDS011;2419;51.276;6.472;2022-11-14T08:31:39;2.90;;;2.30;;
4810;SDS011;2419;51.276;6.472;2022-11-14T08:34:26;3.53;;;3.00;;
4810;SDS011;2419;51.276;6.472;2022-11-14T08:37:13;6.20;;;3.83;;
4810;SDS011;2419;51.276;6.472;2022-11-14T08:40:00;9.07;;;3.30;;
4810;SDS011;2419;51.276;6.472;2022-11-14T08:42:47;4.40;;;2.37;;
4810;SDS011;2419;51.276;6.472;2022-11-14T08:45:35;2.27;;;2.10;;
4810;SDS011;2419;51.276;6.472;2022-11-14T08:48:22;5.63;;;3.20;;
4810;SDS011;2419;51.276;6.472;2022-11-14T08:51:08;5.40;;;2.83;;
4810;SDS011;2419;51.276;6.472;2022-11-14T08:53:56;3.00;;;2.80;;
4810;SDS011;2419;51.276;6.472;2022-11-14T08:56:42;5.80;;;4.17;;
4810;SDS011;2419;51.276;6.472;2022-11-14T08:59:29;5.23;;;3.30;;
4810;SDS011;2419;51.276;6.472;2022-11-14T09:02:18;14.17;;;5.30;;
4810;SDS011;2419;51.276;6.472;2022-11-14T09:05:04;15.57;;;3.97;;
4810;SDS011;2419;51.276;6.472;2022-11-14T09:07:52;4.17;;;3.27;;
4810;SDS011;2419;51.276;6.472;2022-11-14T09:10:38;9.30;;;3.60;;
4810;SDS011;2419;51.276;6.472;2022-11-14T09:13:25;9.40;;;5.30;;
4810;SDS011;2419;51.276;6.472;2022-11-14T09:16:13;9.13;;;3.30;;
4810;SDS011;2419;51.276;6.472;2022-11-14T09:19:01;6.00;;;4.80;;
4810;SDS011;2419;51.276;6.472;2022-11-14T09:21:48;6.10;;;3.67;;
4810;SDS011;2419;51.276;6.472;2022-11-14T09:24:35;6.60;;;3.07;;
4810;SDS011;2419;51.276;6.472;2022-11-14T09:27:21;6.63;;;3.67;;
4810;SDS011;2419;51.276;6.472;2022-11-14T09:30:09;6.23;;;3.33;;
4810;SDS011;2419;51.276;6.472;2022-11-14T09:32:57;10.23;;;3.43;;
4810;SDS011;2419;51.276;6.472;2022-11-14T09:35:56;11.17;;;5.30;;
4810;SDS011;2419;51.276;6.472;2022-11-14T09:38:43;4.50;;;3.20;;
4810;SDS011;2419;51.276;6.472;2022-11-14T09:41:35;7.50;;;3.87;;
4810;SDS011;2419;51.276;6.472;2022-11-14T09:44:38;4.27;;;2.73;;
4810;SDS011;2419;51.276;6.472;2022-11-14T09:47:39;8.33;;;4.73;;
4810;SDS011;2419;51.276;6.472;2022-11-14T09:50:29;9.13;;;4.23;;
4810;SDS011;2419;51.276;6.472;2022-11-14T09:53:22;8.47;;;4.27;;
4810;SDS011;2419;51.276;6.472;2022-11-14T09:56:18;11.07;;;4.77;;
4810;SDS011;2419;51.276;6.472;2022-11-14T09:59:09;7.93;;;4.63;;
4810;SDS011;2419;51.276;6.472;2022-11-14T10:01:58;8.93;;;3.80;;
4810;SDS011;2419;51.276;6.472;2022-11-14T10:04:53;13.27;;;5.53;;
4810;SDS011;2419;51.276;6.472;2022-11-14T10:07:50;10.23;;;5.97;;
4810;SDS011;2419;51.276;6.472;2022-11-14T10:10:53;6.53;;;5.30;;
4810;SDS011;2419;51.276;6.472;2022-11-14T10:13:51;3.10;;;2.80;;
4810;SDS011;2419;51.276;6.472;2022-11-14T10:16:51;9.13;;;3.27;;
4810;SDS011;2419;51.276;6.472;2022-11-14T10:19:45;17.23;;;4.40;;
4810;SDS011;2419;51.276;6.472;2022-11-14T10:22:43;14.00;;;3.97;;
4810;SDS011;2419;51.276;6.472;2022-11-14T10:25:48;5.73;;;4.53;;
4810;SDS011;2419;51.276;6.472;2022-11-14T10:28:57;11.27;;;4.47;;
4810;SDS011;2419;51.276;6.472;2022-11-14T10:31:59;6.33;;;3.60;;
4810;SDS011;2419;51.276;6.472;2022-11-14T10:34:53;8.37;;;4.17;;
4810;SDS011;2419;51.276;6.472;2022-11-14T10:37:49;6.80;;;3.93;;
4810;SDS011;2419;51.276;6.472;2022-11-14T10:40:43;14.83;;;5.43;;
4810;SDS011;2419;51.276;6.472;2022-11-14T10:43:34;11.30;;;3.67;;
4810;SDS011;2419;51.276;6.472;2022-11-14T10:46:25;7.03;;;4.60;;
4810;SDS011;2419;51.276;6.472;2022-11-14T10:49:17;7.83;;;4.00;;
4810;SDS011;2419;51.276;6.472;2022-11-14T10:52:08;7.10;;;4.80;;
4810;SDS011;2419;51.276;6.472;2022-11-14T10:54:59;5.60;;;3.87;;
4810;SDS011;2419;51.276;6.472;2022-11-14T10:57:50;3.80;;;2.10;;
4810;SDS011;2419;51.276;6.472;2022-11-14T11:00:38;6.73;;;3.30;;
4810;SDS011;2419;51.276;6.472;2022-11-14T11:03:39;6.20;;;4.03;;
4810;SDS011;2419;51.276;6.472;2022-11-14T11:06:27;6.27;;;3.20;;
4810;SDS011;2419;51.276;6.472;2022-11-14T11:09:15;7.13;;;4.20;;
4810;SDS011;2419;51.276;6.472;2022-11-14T11:12:37;3.20;;;2.30;;
4810;SDS011;2419;51.276;6.472;2022-11-14T11:15:28;6.73;;;2.40;;
4810;SDS011;2419;51.276;6.472;2022-11-14T11:18:27;14.70;;;4.03;;
4810;SDS011;2419;51.276;6.472;2022-11-14T11:21:15;8.80;;;3.73;;
4810;SDS011;2419;51.276;6.472;2022-11-14T11:24:04;5.07;;;2.67;;
4810;SDS011;2419;51.276;6.472;2022-11-14T11:27:00;2.77;;;1.53;;
4810;SDS011;2419;51.276;6.472;2022-11-14T11:30:16;1.70;;;1.60;;
4810;SDS011;2419;51.276;6.472;2022-11-14T11:33:14;4.30;;;2.50;;
4810;SDS011;2419;51.276;6.472;2022-11-14T11:36:03;3.83;;;2.30;;
4810;SDS011;2419;51.276;6.472;2022-11-14T11:38:56;2.73;;;1.93;;
4810;SDS011;2419;51.276;6.472;2022-11-14T11:41:44;7.97;;;4.40;;
4810;SDS011;2419;51.276;6.472;2022-11-14T11:44:54;4.67;;;2.90;;
4810;SDS011;2419;51.276;6.472;2022-11-14T11:47:47;2.43;;;2.00;;
4810;SDS011;2419;51.276;6.472;2022-11-14T11:50:39;6.83;;;3.37;;
4810;SDS011;2419;51.276;6.472;2022-11-14T11:53:30;4.63;;;2.80;;
4810;SDS011;2419;51.276;6.472;2022-11-14T11:56:23;3.27;;;2.97;;
4810;SDS011;2419;51.276;6.472;2022-11-14T11:59:17;8.00;;;3.93;;
4810;SDS011;2419;51.276;6.472;2022-11-14T12:02:16;8.90;;;3.50;;
4810;SDS011;2419;51.276;6.472;2022-11-14T12:05:09;3.60;;;3.00;;
4810;SDS011;2419;51.276;6.472;2022-11-14T12:08:01;9.07;;;4.40;;
4810;SDS011;2419;51.276;6.472;2022-11-14T12:10:55;6.20;;;3.60;;
4810;SDS011;2419;51.276;6.472;2022-11-14T12:13:53;3.73;;;2.87;;
4810;SDS011;2419;51.276;6.472;2022-11-14T12:17:06;5.30;;;2.90;;
4810;SDS011;2419;51.276;6.472;2022-11-14T12:29:54;4.47;;;2.80;;
4810;SDS011;2419;51.276;6.472;2022-11-14T12:32:56;8.63;;;5.27;;
4810;SDS011;2419;51.276;6.472;2022-11-14T12:35:47;10.13;;;4.43;;
4810;SDS011;2419;51.276;6.472;2022-11-14T12:38:40;11.37;;;4.10;;
4810;SDS011;2419;51.276;6.472;2022-11-14T12:41:30;12.37;;;4.67;;
4810;SDS011;2419;51.276;6.472;2022-11-14T12:44:31;9.93;;;5.37;;
4810;SDS011;2419;51.276;6.472;2022-11-14T12:47:21;4.40;;;2.60;;
4810;SDS011;2419;51.276;6.472;2022-11-14T12:50:30;3.47;;;2.57;;
4810;SDS011;2419;51.276;6.472;2022-11-14T12:53:43;6.60;;;3.33;;
4810;SDS011;2419;51.276;6.472;2022-11-14T12:59:52;7.07;;;3.10;;
4810;SDS011;2419;51.276;6.472;2022-11-14T13:06:16;5.10;;;3.40;;
4810;SDS011;2419;51.276;6.472;2022-11-14T13:09:17;8.77;;;3.13;;
4810;SDS011;2419;51.276;6.472;2022-11-14T13:12:31;6.17;;;3.30;;
4810;SDS011;2419;51.276;6.472;2022-11-14T13:15:47;7.63;;;3.07;;
4810;SDS011;2419;51.276;6.472;2022-11-14T13:18:57;7.70;;;4.47;;
4810;SDS011;2419;51.276;6.472;2022-11-14T13:22:31;4.17;;;3.77;;
4810;SDS011;2419;51.276;6.472;2022-11-14T13:25:22;10.87;;;3.20;;
4810;SDS011;2419;51.276;6.472;2022-11-14T13:31:46;11.47;;;4.43;;
4810;SDS011;2419;51.276;6.472;2022-11-14T13:34:43;11.77;;;5.43;;
4810;SDS011;2419;51.276;6.472;2022-11-14T13:37:39;14.13;;;5.50;;
4810;SDS011;2419;51.276;6.472;2022-11-14T13:40:35;9.17;;;3.83;;
4810;SDS011;2419;51.276;6.472;2022-11-14T13:43:32;7.30;;;4.60;;
4810;SDS011;2419;51.276;6.472;2022-11-14T13:46:43;2.63;;;2.43;;
4810;SDS011;2419;51.276;6.472;2022-11-14T13:49:53;2.97;;;2.40;;
4810;SDS011;2419;51.276;6.472;2022-11-14T13:52:45;4.80;;;3.73;;
4810;SDS011;2419;51.276;6.472;2022-11-14T13:55:37;9.30;;;4.00;;
4810;SDS011;2419;51.276;6.472;2022-11-14T13:58:48;8.63;;;4.77;;
4810;SDS011;2419;51.276;6.472;2022-11-14T14:01:54;8.00;;;3.97;;
4810;SDS011;2419;51.276;6.472;2022-11-14T14:05:03;12.30;;;4.43;;
4810;SDS011;2419;51.276;6.472;2022-11-14T14:08:04;9.63;;;4.50;;
4810;SDS011;2419;51.276;6.472;2022-11-14T14:11:01;6.53;;;3.30;;
4810;SDS011;2419;51.276;6.472;2022-11-14T14:14:02;5.77;;;3.37;;
4810;SDS011;2419;51.276;6.472;2022-11-14T14:17:03;8.13;;;5.47;;
4810;SDS011;2419;51.276;6.472;2022-11-14T14:19:59;6.77;;;2.87;;
4810;SDS011;2419;51.276;6.472;2022-11-14T14:23:00;6.73;;;4.13;;
4810;SDS011;2419;51.276;6.472;2022-11-14T14:26:00;4.60;;;3.07;;
4810;SDS011;2419;51.276;6.472;2022-11-14T14:28:53;8.33;;;4.03;;
4810;SDS011;2419;51.276;6.472;2022-11-14T14:31:50;12.50;;;5.73;;
4810;SDS011;2419;51.276;6.472;2022-11-14T14:34:38;5.13;;;4.60;;
4810;SDS011;2419;51.276;6.472;2022-11-14T14:37:27;5.33;;;3.60;;
4810;SDS011;2419;51.276;6.472;2022-11-14T14:40:21;16.10;;;3.77;;
4810;SDS011;2419;51.276;6.472;2022-11-14T14:43:11;9.80;;;4.90;;
4810;SDS011;2419;51.276;6.472;2022-11-14T14:46:07;8.73;;;4.07;;
4810;SDS011;2419;51.276;6.472;2022-11-14T14:48:54;8.13;;;4.93;;
4810;SDS011;2419;51.276;6.472;2022-11-14T14:51:43;5.90;;;4.40;;
4810;SDS011;2419;51.276;6.472;2022-11-14T14:54:30;10.10;;;4.10;;
4810;SDS011;2419;51.276;6.472;2022-11-14T14:57:17;7.40;;;4.80;;
4810;SDS011;2419;51.276;6.472;2022-11-14T15:00:18;7.17;;;4.27;;
4810;SDS011;2419;51.276;6.472;2022-11-14T15:03:08;9.00;;;4.77;;
4810;SDS011;2419;51.276;6.472;2022-11-14T15:05:56;11.57;;;3.77;;
4810;SDS011;2419;51.276;6.472;2022-11-14T15:08:45;5.47;;;3.77;;
4810;SDS011;2419;51.276;6.472;2022-11-14T15:11:32;6.60;;;3.57;;
4810;SDS011;2419;51.276;6.472;2022-11-14T15:14:20;5.70;;;3.87;;
4810;SDS011;2419;51.276;6.472;2022-11-14T15:17:09;9.57;;;5.37;;
4810;SDS011;2419;51.276;6.472;2022-11-14T15:19:57;9.30;;;5.30;;
4810;SDS011;2419;51.276;6.472;2022-11-14T15:22:53;6.30;;;4.27;;
4810;SDS011;2419;51.276;6.472;2022-11-14T15:25:49;8.80;;;5.57;;
4810;SDS011;2419;51.276;6.472;2022-11-14T15:28:47;7.47;;;4.10;;
4810;SDS011;2419;51.276;6.472;2022-11-14T15:31:34;10.67;;;4.37;;
4810;SDS011;2419;51.276;6.472;2022-11-14T15:34:22;6.10;;;4.00;;
4810;SDS011;2419;51.276;6.472;2022-11-14T15:37:19;5.07;;;3.80;;
4810;SDS011;2419;51.276;6.472;2022-11-14T15:40:15;7.10;;;4.03;;
4810;SDS011;2419;51.276;6.472;2022-11-14T15:49:33;13.43;;;6.30;;
4810;SDS011;2419;51.276;6.472;2022-11-14T15:52:22;10.00;;;5.20;;
4810;SDS011;2419;51.276;6.472;2022-11-14T15:55:12;10.17;;;4.50;;
4810;SDS011;2419;51.276;6.472;2022-11-14T15:58:01;6.90;;;4.33;;
4810;SDS011;2419;51.276;6.472;2022-11-14T16:01:12;9.73;;;5.30;;
4810;SDS011;2419;51.276;6.472;2022-11-14T16:04:04;7.73;;;3.60;;
4810;SDS011;2419;51.276;6.472;2022-11-14T16:06:53;7.50;;;5.03;;
4810;SDS011;2419;51.276;6.472;2022-11-14T16:09:40;5.47;;;3.70;;
4810;SDS011;2419;51.276;6.472;2022-11-14T16:12:26;6.20;;;4.60;;
4810;SDS011;2419;51.276;6.472;2022-11-14T16:15:13;6.57;;;3.97;;
4810;SDS011;2419;51.276;6.472;2022-11-14T16:18:02;7.70;;;4.67;;
4810;SDS011;2419;51.276;6.472;2022-11-14T16:20:50;8.47;;;6.13;;
4810;SDS011;2419;51.276;6.472;2022-11-14T16:23:37;6.83;;;3.70;;
4810;SDS011;2419;51.276;6.472;2022-11-14T16:26:24;9.33;;;4.90;;
4810;SDS011;2419;51.276;6.472;2022-11-14T16:29:11;5.90;;;4.67;;
4810;SDS011;2419;51.276;6.472;2022-11-14T16:31:58;11.70;;;6.23;;
4810;SDS011;2419;51.276;6.472;2022-11-14T16:34:47;4.73;;;3.63;;
4810;SDS011;2419;51.276;6.472;2022-11-14T16:37:35;8.30;;;4.30;;
4810;SDS011;2419;51.276;6.472;2022-11-14T16:40:22;13.73;;;5.37;;
4810;SDS011;2419;51.276;6.472;2022-11-14T16:43:13;10.73;;;5.27;;
4810;SDS011;2419;51.276;6.472;2022-11-14T16:46:02;7.63;;;3.97;;
4810;SDS011;2419;51.276;6.472;2022-11-14T16:48:50;11.80;;;5.67;;
4810;SDS011;2419;51.276;6.472;2022-11-14T16:51:38;6.53;;;3.90;;
4810;SDS011;2419;51.276;6.472;2022-11-14T16:54:34;12.50;;;4.30;;
4810;SDS011;2419;51.276;6.472;2022-11-14T16:57:24;16.33;;;5.17;;
4810;SDS011;2419;51.276;6.472;2022-11-14T17:00:11;8.10;;;5.17;;
4810;SDS011;2419;51.276;6.472;2022-11-14T17:02:58;5.73;;;4.47;;
4810;SDS011;2419;51.276;6.472;2022-11-14T17:05:46;4.20;;;3.30;;
4810;SDS011;2419;51.276;6.472;2022-11-14T17:08:39;7.87;;;4.60;;
4810;SDS011;2419;51.276;6.472;2022-11-14T17:11:27;11.80;;;4.87;;
4810;SDS011;2419;51.276;6.472;2022-11-14T17:14:14;7.23;;;5.43;;
4810;SDS011;2419;51.276;6.472;2022-11-14T17:17:01;9.03;;;4.70;;
4810;SDS011;2419;51.276;6.472;2022-11-14T17:19:48;6.73;;;4.23;;
4810;SDS011;2419;51.276;6.472;2022-11-14T17:22:35;10.13;;;5.60;;
4810;SDS011;2419;51.276;6.472;2022-11-14T17:25:23;4.57;;;3.63;;
4810;SDS011;2419;51.276;6.472;2022-11-14T17:28:10;11.93;;;5.00;;
4810;SDS011;2419;51.276;6.472;2022-11-14T17:30:58;10.60;;;4.93;;
4810;SDS011;2419;51.276;6.472;2022-11-14T17:33:49;10.10;;;4.87;;
4810;SDS011;2419;51.276;6.472;2022-11-14T17:36:36;7.90;;;5.33;;
4810;SDS011;2419;51.276;6.472;2022-11-14T17:39:23;18.80;;;4.47;;
4810;SDS011;2419;51.276;6.472;2022-11-14T17:42:11;13.10;;;4.00;;
4810;SDS011;2419;51.276;6.472;2022-11-14T17:44:58;4.00;;;2.90;;
4810;SDS011;2419;51.276;6.472;2022-11-14T17:47:45;8.80;;;4.87;;
4810;SDS011;2419;51.276;6.472;2022-11-14T17:50:32;8.43;;;4.83;;
4810;SDS011;2419;51.276;6.472;2022-11-14T17:53:23;12.53;;;5.37;;
4810;SDS011;2419;51.276;6.472;2022-11-14T17:56:11;10.23;;;5.10;;
4810;SDS011;2419;51.276;6.472;2022-11-14T17:59:01;6.80;;;4.63;;
4810;SDS011;2419;51.276;6.472;2022-11-14T18:01:48;6.53;;;4.20;;
4810;SDS011;2419;51.276;6.472;2022-11-14T18:04:34;7.00;;;4.60;;
4810;SDS011;2419;51.276;6.472;2022-11-14T18:07:21;8.07;;;4.30;;